sensor_id;sensor_type;location;lat;lon;timestamp;P1;durP1;ratioP1;P2;durP2;ratioP2
27219;SDS011;45274;52.266;10.790;2023-11-21T00:01:15;11.73;;;4.90;;
27219;SDS011;45274;52.266;10.790;2023-11-21T00:03:40;19.80;;;5.20;;
27219;SDS011;45274;52.266;10.790;2023-11-21T00:06:06;14.95;;;5.15;;
27219;SDS011;45274;52.266;10.790;2023-11-21T00:08:34;9.95;;;4.40;;
27219;SDS011;45274;52.266;10.790;2023-11-21T00:11:00;12.75;;;4.60;;
27219;SDS011;45274;52.266;10.790;2023-11-21T00:13:26;15.23;;;5.05;;
27219;SDS011;45274;52.266;10.790;2023-11-21T00:15:51;17.85;;;5.30;;
27219;SDS011;45274;52.266;10.790;2023-11-21T00:18:17;11.50;;;4.70;;
27219;SDS011;45274;52.266;10.790;2023-11-21T00:20:42;11.90;;;4.93;;
27219;SDS011;45274;52.266;10.790;2023-11-21T00:23:08;14.00;;;4.60;;
27219;SDS011;45274;52.266;10.790;2023-11-21T00:25:35;12.55;;;5.20;;
27219;SDS011;45274;52.266;10.790;2023-11-21T00:28:00;11.77;;;4.43;;
27219;SDS011;45274;52.266;10.790;2023-11-21T00:30:26;19.13;;;5.43;;
27219;SDS011;45274;52.266;10.790;2023-11-21T00:32:52;13.77;;;5.60;;
27219;SDS011;45274;52.266;10.790;2023-11-21T00:35:18;12.38;;;5.60;;
27219;SDS011;45274;52.266;10.790;2023-11-21T00:37:43;14.70;;;5.57;;
27219;SDS011;45274;52.266;10.790;2023-11-21T00:40:09;14.65;;;5.50;;
27219;SDS011;45274;52.266;10.790;2023-11-21T00:42:35;14.18;;;5.40;;
27219;SDS011;45274;52.266;10.790;2023-11-21T00:45:00;12.25;;;5.88;;
27219;SDS011;45274;52.266;10.790;2023-11-21T00:47:26;17.38;;;6.35;;
27219;SDS011;45274;52.266;10.790;2023-11-21T00:49:51;9.45;;;5.35;;
27219;SDS011;45274;52.266;10.790;2023-11-21T00:52:16;19.00;;;6.05;;
27219;SDS011;45274;52.266;10.790;2023-11-21T00:54:42;13.88;;;5.97;;
27219;SDS011;45274;52.266;10.790;2023-11-21T00:57:07;14.52;;;6.10;;
27219;SDS011;45274;52.266;10.790;2023-11-21T00:59:33;13.30;;;6.28;;
27219;SDS011;45274;52.266;10.790;2023-11-21T01:02:00;14.70;;;6.60;;
27219;SDS011;45274;52.266;10.790;2023-11-21T01:04:26;17.38;;;6.68;;
27219;SDS011;45274;52.266;10.790;2023-11-21T01:06:52;14.77;;;6.80;;
27219;SDS011;45274;52.266;10.790;2023-11-21T01:09:18;14.70;;;6.72;;
27219;SDS011;45274;52.266;10.790;2023-11-21T01:11:43;19.35;;;6.63;;
27219;SDS011;45274;52.266;10.790;2023-11-21T01:14:09;13.13;;;6.45;;
27219;SDS011;45274;52.266;10.790;2023-11-21T01:16:35;15.93;;;7.18;;
27219;SDS011;45274;52.266;10.790;2023-11-21T01:19:01;18.98;;;6.68;;
27219;SDS011;45274;52.266;10.790;2023-11-21T01:21:27;14.90;;;7.55;;
27219;SDS011;45274;52.266;10.790;2023-11-21T01:23:53;19.48;;;7.10;;
27219;SDS011;45274;52.266;10.790;2023-11-21T01:26:20;17.45;;;7.07;;
27219;SDS011;45274;52.266;10.790;2023-11-21T01:28:45;16.02;;;6.97;;
27219;SDS011;45274;52.266;10.790;2023-11-21T01:31:13;14.45;;;6.57;;
27219;SDS011;45274;52.266;10.790;2023-11-21T01:33:39;15.27;;;6.47;;
27219;SDS011;45274;52.266;10.790;2023-11-21T01:36:05;15.40;;;6.78;;
27219;SDS011;45274;52.266;10.790;2023-11-21T01:38:31;12.93;;;6.68;;
27219;SDS011;45274;52.266;10.790;2023-11-21T01:40:57;16.33;;;6.55;;
27219;SDS011;45274;52.266;10.790;2023-11-21T01:43:22;12.82;;;6.80;;
27219;SDS011;45274;52.266;10.790;2023-11-21T01:45:48;16.50;;;6.65;;
27219;SDS011;45274;52.266;10.790;2023-11-21T01:48:14;16.10;;;6.88;;
27219;SDS011;45274;52.266;10.790;2023-11-21T01:50:41;15.60;;;6.32;;
27219;SDS011;45274;52.266;10.790;2023-11-21T01:53:07;18.10;;;7.35;;
27219;SDS011;45274;52.266;10.790;2023-11-21T01:55:33;16.63;;;6.95;;
27219;SDS011;45274;52.266;10.790;2023-11-21T01:57:59;13.63;;;6.28;;
27219;SDS011;45274;52.266;10.790;2023-11-21T02:00:25;21.10;;;7.43;;
27219;SDS011;45274;52.266;10.790;2023-11-21T02:02:53;18.42;;;7.10;;
27219;SDS011;45274;52.266;10.790;2023-11-21T02:05:19;16.90;;;7.13;;
27219;SDS011;45274;52.266;10.790;2023-11-21T02:07:46;14.73;;;7.20;;
27219;SDS011;45274;52.266;10.790;2023-11-21T02:10:13;15.48;;;7.32;;
27219;SDS011;45274;52.266;10.790;2023-11-21T02:12:43;21.70;;;8.27;;
27219;SDS011;45274;52.266;10.790;2023-11-21T02:15:13;18.73;;;7.90;;
27219;SDS011;45274;52.266;10.790;2023-11-21T02:17:45;15.95;;;7.45;;
27219;SDS011;45274;52.266;10.790;2023-11-21T02:20:16;21.70;;;8.65;;
27219;SDS011;45274;52.266;10.790;2023-11-21T02:25:30;17.95;;;7.70;;
27219;SDS011;45274;52.266;10.790;2023-11-21T02:27:58;22.58;;;8.70;;
27219;SDS011;45274;52.266;10.790;2023-11-21T02:30:26;17.75;;;8.13;;
27219;SDS011;45274;52.266;10.790;2023-11-21T02:32:53;20.17;;;8.68;;
27219;SDS011;45274;52.266;10.790;2023-11-21T02:35:19;17.58;;;8.40;;
27219;SDS011;45274;52.266;10.790;2023-11-21T02:37:46;20.80;;;7.80;;
27219;SDS011;45274;52.266;10.790;2023-11-21T02:40:12;21.73;;;8.45;;
27219;SDS011;45274;52.266;10.790;2023-11-21T02:42:38;18.73;;;8.82;;
27219;SDS011;45274;52.266;10.790;2023-11-21T02:45:05;17.50;;;8.73;;
27219;SDS011;45274;52.266;10.790;2023-11-21T02:47:31;18.42;;;8.73;;
27219;SDS011;45274;52.266;10.790;2023-11-21T02:49:57;24.00;;;8.68;;
27219;SDS011;45274;52.266;10.790;2023-11-21T02:52:22;20.63;;;8.18;;
27219;SDS011;45274;52.266;10.790;2023-11-21T02:54:47;18.30;;;8.35;;
27219;SDS011;45274;52.266;10.790;2023-11-21T02:57:13;19.23;;;9.10;;
27219;SDS011;45274;52.266;10.790;2023-11-21T02:59:38;18.20;;;8.50;;
27219;SDS011;45274;52.266;10.790;2023-11-21T03:02:04;13.55;;;8.15;;
27219;SDS011;45274;52.266;10.790;2023-11-21T03:04:29;18.63;;;8.23;;
27219;SDS011;45274;52.266;10.790;2023-11-21T03:06:57;22.33;;;9.05;;
27219;SDS011;45274;52.266;10.790;2023-11-21T03:09:23;20.40;;;8.27;;
27219;SDS011;45274;52.266;10.790;2023-11-21T03:11:48;17.92;;;8.77;;
27219;SDS011;45274;52.266;10.790;2023-11-21T03:14:13;17.05;;;8.65;;
27219;SDS011;45274;52.266;10.790;2023-11-21T03:16:39;18.48;;;8.88;;
27219;SDS011;45274;52.266;10.790;2023-11-21T03:19:06;22.65;;;9.02;;
27219;SDS011;45274;52.266;10.790;2023-11-21T03:21:33;21.55;;;9.20;;
27219;SDS011;45274;52.266;10.790;2023-11-21T03:23:58;20.27;;;8.63;;
27219;SDS011;45274;52.266;10.790;2023-11-21T03:26:25;17.35;;;8.38;;
27219;SDS011;45274;52.266;10.790;2023-11-21T03:28:50;21.17;;;8.90;;
27219;SDS011;45274;52.266;10.790;2023-11-21T03:31:18;19.92;;;9.40;;
27219;SDS011;45274;52.266;10.790;2023-11-21T03:33:44;25.55;;;9.75;;
27219;SDS011;45274;52.266;10.790;2023-11-21T03:36:10;21.80;;;8.75;;
27219;SDS011;45274;52.266;10.790;2023-11-21T03:38:36;23.15;;;9.93;;
27219;SDS011;45274;52.266;10.790;2023-11-21T03:41:02;23.63;;;8.82;;
27219;SDS011;45274;52.266;10.790;2023-11-21T03:43:27;20.58;;;8.88;;
27219;SDS011;45274;52.266;10.790;2023-11-21T03:45:52;18.45;;;8.85;;
27219;SDS011;45274;52.266;10.790;2023-11-21T03:48:18;22.65;;;9.73;;
27219;SDS011;45274;52.266;10.790;2023-11-21T03:50:43;22.95;;;9.73;;
27219;SDS011;45274;52.266;10.790;2023-11-21T03:53:09;20.90;;;9.55;;
27219;SDS011;45274;52.266;10.790;2023-11-21T03:55:34;20.90;;;9.50;;
27219;SDS011;45274;52.266;10.790;2023-11-21T03:57:59;21.20;;;9.82;;
27219;SDS011;45274;52.266;10.790;2023-11-21T04:00:25;19.80;;;10.10;;
27219;SDS011;45274;52.266;10.790;2023-11-21T04:02:52;22.17;;;9.90;;
27219;SDS011;45274;52.266;10.790;2023-11-21T04:05:19;21.70;;;9.57;;
27219;SDS011;45274;52.266;10.790;2023-11-21T04:07:45;25.02;;;10.48;;
27219;SDS011;45274;52.266;10.790;2023-11-21T04:10:10;30.75;;;10.02;;
27219;SDS011;45274;52.266;10.790;2023-11-21T04:12:38;25.27;;;9.75;;
27219;SDS011;45274;52.266;10.790;2023-11-21T04:15:03;21.38;;;9.82;;
27219;SDS011;45274;52.266;10.790;2023-11-21T04:17:29;20.70;;;10.32;;
27219;SDS011;45274;52.266;10.790;2023-11-21T04:19:54;28.67;;;11.23;;
27219;SDS011;45274;52.266;10.790;2023-11-21T04:22:20;21.05;;;10.75;;
27219;SDS011;45274;52.266;10.790;2023-11-21T04:24:45;20.10;;;10.50;;
27219;SDS011;45274;52.266;10.790;2023-11-21T04:27:11;32.25;;;11.05;;
27219;SDS011;45274;52.266;10.790;2023-11-21T04:29:38;24.63;;;10.45;;
27219;SDS011;45274;52.266;10.790;2023-11-21T04:32:03;29.08;;;11.15;;
27219;SDS011;45274;52.266;10.790;2023-11-21T04:34:29;22.15;;;10.90;;
27219;SDS011;45274;52.266;10.790;2023-11-21T04:36:56;19.75;;;10.48;;
27219;SDS011;45274;52.266;10.790;2023-11-21T04:39:21;25.02;;;11.40;;
27219;SDS011;45274;52.266;10.790;2023-11-21T04:41:47;24.38;;;9.77;;
27219;SDS011;45274;52.266;10.790;2023-11-21T04:44:12;26.80;;;11.63;;
27219;SDS011;45274;52.266;10.790;2023-11-21T04:46:38;22.23;;;11.07;;
27219;SDS011;45274;52.266;10.790;2023-11-21T04:49:03;22.13;;;10.98;;
27219;SDS011;45274;52.266;10.790;2023-11-21T04:51:28;22.25;;;10.68;;
27219;SDS011;45274;52.266;10.790;2023-11-21T04:53:54;22.73;;;11.18;;
27219;SDS011;45274;52.266;10.790;2023-11-21T04:56:19;25.00;;;10.75;;
27219;SDS011;45274;52.266;10.790;2023-11-21T04:58:45;18.58;;;10.00;;
27219;SDS011;45274;52.266;10.790;2023-11-21T05:01:10;22.15;;;10.77;;
27219;SDS011;45274;52.266;10.790;2023-11-21T05:03:36;27.48;;;10.82;;
27219;SDS011;45274;52.266;10.790;2023-11-21T05:06:03;17.65;;;9.98;;
27219;SDS011;45274;52.266;10.790;2023-11-21T05:08:30;24.75;;;11.27;;
27219;SDS011;45274;52.266;10.790;2023-11-21T05:10:56;18.73;;;10.52;;
27219;SDS011;45274;52.266;10.790;2023-11-21T05:13:21;25.00;;;11.80;;
27219;SDS011;45274;52.266;10.790;2023-11-21T05:15:47;20.33;;;10.52;;
27219;SDS011;45274;52.266;10.790;2023-11-21T05:18:12;24.42;;;11.32;;
27219;SDS011;45274;52.266;10.790;2023-11-21T05:20:41;22.17;;;11.32;;
27219;SDS011;45274;52.266;10.790;2023-11-21T05:23:06;21.20;;;10.63;;
27219;SDS011;45274;52.266;10.790;2023-11-21T05:25:33;23.85;;;10.63;;
27219;SDS011;45274;52.266;10.790;2023-11-21T05:27:58;26.83;;;11.95;;
27219;SDS011;45274;52.266;10.790;2023-11-21T05:30:26;20.02;;;10.90;;
27219;SDS011;45274;52.266;10.790;2023-11-21T05:32:51;21.17;;;11.20;;
27219;SDS011;45274;52.266;10.790;2023-11-21T05:35:17;16.85;;;10.07;;
27219;SDS011;45274;52.266;10.790;2023-11-21T05:37:43;17.67;;;11.57;;
27219;SDS011;45274;52.266;10.790;2023-11-21T05:40:09;26.10;;;14.30;;
27219;SDS011;45274;52.266;10.790;2023-11-21T05:42:35;22.63;;;11.20;;
27219;SDS011;45274;52.266;10.790;2023-11-21T05:45:03;14.00;;;9.32;;
27219;SDS011;45274;52.266;10.790;2023-11-21T05:50:05;15.80;;;10.45;;
27219;SDS011;45274;52.266;10.790;2023-11-21T05:52:35;19.05;;;10.10;;
27219;SDS011;45274;52.266;10.790;2023-11-21T05:55:00;7.82;;;4.75;;
27219;SDS011;45274;52.266;10.790;2023-11-21T05:57:26;5.43;;;3.35;;
27219;SDS011;45274;52.266;10.790;2023-11-21T05:59:51;4.55;;;3.00;;
27219;SDS011;45274;52.266;10.790;2023-11-21T06:02:16;7.63;;;2.67;;
27219;SDS011;45274;52.266;10.790;2023-11-21T06:04:43;4.28;;;1.83;;
27219;SDS011;45274;52.266;10.790;2023-11-21T06:07:08;2.83;;;2.25;;
27219;SDS011;45274;52.266;10.790;2023-11-21T06:09:35;6.55;;;4.57;;
27219;SDS011;45274;52.266;10.790;2023-11-21T06:12:00;7.93;;;4.97;;
27219;SDS011;45274;52.266;10.790;2023-11-21T06:14:26;11.52;;;5.50;;
27219;SDS011;45274;52.266;10.790;2023-11-21T06:16:51;7.00;;;5.20;;
27219;SDS011;45274;52.266;10.790;2023-11-21T06:19:17;8.18;;;5.68;;
27219;SDS011;45274;52.266;10.790;2023-11-21T06:21:45;9.80;;;6.15;;
27219;SDS011;45274;52.266;10.790;2023-11-21T06:24:12;9.73;;;7.18;;
27219;SDS011;45274;52.266;10.790;2023-11-21T06:26:37;11.07;;;6.72;;
27219;SDS011;45274;52.266;10.790;2023-11-21T06:29:03;10.68;;;7.68;;
27219;SDS011;45274;52.266;10.790;2023-11-21T06:31:29;13.10;;;7.63;;
27219;SDS011;45274;52.266;10.790;2023-11-21T06:33:54;10.90;;;6.90;;
27219;SDS011;45274;52.266;10.790;2023-11-21T06:36:20;13.18;;;7.65;;
27219;SDS011;45274;52.266;10.790;2023-11-21T06:38:45;13.82;;;8.13;;
27219;SDS011;45274;52.266;10.790;2023-11-21T06:41:11;13.68;;;8.18;;
27219;SDS011;45274;52.266;10.790;2023-11-21T06:43:40;12.85;;;7.75;;
27219;SDS011;45274;52.266;10.790;2023-11-21T06:46:05;13.95;;;9.38;;
27219;SDS011;45274;52.266;10.790;2023-11-21T06:48:31;15.32;;;8.60;;
27219;SDS011;45274;52.266;10.790;2023-11-21T06:50:56;16.17;;;9.32;;
27219;SDS011;45274;52.266;10.790;2023-11-21T06:53:21;13.77;;;9.27;;
27219;SDS011;45274;52.266;10.790;2023-11-21T06:55:47;16.85;;;10.15;;
27219;SDS011;45274;52.266;10.790;2023-11-21T06:58:12;17.08;;;11.13;;
27219;SDS011;45274;52.266;10.790;2023-11-21T07:00:39;20.65;;;11.40;;
27219;SDS011;45274;52.266;10.790;2023-11-21T07:03:05;21.25;;;12.13;;
27219;SDS011;45274;52.266;10.790;2023-11-21T07:05:30;20.75;;;11.38;;
27219;SDS011;45274;52.266;10.790;2023-11-21T07:07:55;17.67;;;10.95;;
27219;SDS011;45274;52.266;10.790;2023-11-21T07:10:21;19.10;;;11.88;;
27219;SDS011;45274;52.266;10.790;2023-11-21T07:12:47;17.27;;;11.85;;
27219;SDS011;45274;52.266;10.790;2023-11-21T07:15:12;21.17;;;12.32;;
27219;SDS011;45274;52.266;10.790;2023-11-21T07:17:38;21.83;;;11.38;;
27219;SDS011;45274;52.266;10.790;2023-11-21T07:20:05;17.45;;;10.55;;
27219;SDS011;45274;52.266;10.790;2023-11-21T07:22:31;14.45;;;9.63;;
27219;SDS011;45274;52.266;10.790;2023-11-21T07:24:57;15.82;;;10.95;;
27219;SDS011;45274;52.266;10.790;2023-11-21T07:27:22;16.00;;;9.35;;
27219;SDS011;45274;52.266;10.790;2023-11-21T07:29:48;15.07;;;9.13;;
27219;SDS011;45274;52.266;10.790;2023-11-21T07:32:14;13.35;;;8.35;;
27219;SDS011;45274;52.266;10.790;2023-11-21T07:34:40;13.38;;;8.77;;
27219;SDS011;45274;52.266;10.790;2023-11-21T07:37:07;17.20;;;10.15;;
27219;SDS011;45274;52.266;10.790;2023-11-21T07:39:34;15.65;;;9.90;;
27219;SDS011;45274;52.266;10.790;2023-11-21T07:42:00;21.42;;;10.55;;
27219;SDS011;45274;52.266;10.790;2023-11-21T07:44:27;16.67;;;10.30;;
27219;SDS011;45274;52.266;10.790;2023-11-21T07:46:53;17.05;;;10.45;;
27219;SDS011;45274;52.266;10.790;2023-11-21T07:49:22;17.23;;;10.52;;
27219;SDS011;45274;52.266;10.790;2023-11-21T07:51:48;15.02;;;9.52;;
27219;SDS011;45274;52.266;10.790;2023-11-21T07:54:13;17.00;;;10.07;;
27219;SDS011;45274;52.266;10.790;2023-11-21T07:56:39;16.13;;;9.13;;
27219;SDS011;45274;52.266;10.790;2023-11-21T07:59:04;17.80;;;9.68;;
27219;SDS011;45274;52.266;10.790;2023-11-21T08:01:30;15.60;;;9.90;;
27219;SDS011;45274;52.266;10.790;2023-11-21T08:03:56;18.23;;;9.77;;
27219;SDS011;45274;52.266;10.790;2023-11-21T08:06:26;15.18;;;10.18;;
27219;SDS011;45274;52.266;10.790;2023-11-21T08:08:52;14.18;;;9.98;;
27219;SDS011;45274;52.266;10.790;2023-11-21T08:11:17;16.95;;;10.23;;
27219;SDS011;45274;52.266;10.790;2023-11-21T08:13:42;13.52;;;9.32;;
27219;SDS011;45274;52.266;10.790;2023-11-21T08:16:08;13.07;;;9.23;;
27219;SDS011;45274;52.266;10.790;2023-11-21T08:18:33;14.82;;;9.32;;
27219;SDS011;45274;52.266;10.790;2023-11-21T08:20:59;12.75;;;9.15;;
27219;SDS011;45274;52.266;10.790;2023-11-21T08:23:25;14.27;;;9.52;;
27219;SDS011;45274;52.266;10.790;2023-11-21T08:25:51;16.77;;;10.07;;
27219;SDS011;45274;52.266;10.790;2023-11-21T08:28:17;13.20;;;8.73;;
27219;SDS011;45274;52.266;10.790;2023-11-21T08:30:43;18.08;;;9.70;;
27219;SDS011;45274;52.266;10.790;2023-11-21T08:33:09;14.60;;;10.15;;
27219;SDS011;45274;52.266;10.790;2023-11-21T08:35:35;18.17;;;10.52;;
27219;SDS011;45274;52.266;10.790;2023-11-21T08:38:01;15.95;;;11.23;;
27219;SDS011;45274;52.266;10.790;2023-11-21T08:40:27;16.83;;;11.85;;
27219;SDS011;45274;52.266;10.790;2023-11-21T08:42:53;13.77;;;8.93;;
27219;SDS011;45274;52.266;10.790;2023-11-21T08:45:19;12.57;;;9.40;;
27219;SDS011;45274;52.266;10.790;2023-11-21T08:47:46;14.15;;;9.70;;
27219;SDS011;45274;52.266;10.790;2023-11-21T08:50:12;15.02;;;8.80;;
27219;SDS011;45274;52.266;10.790;2023-11-21T08:52:41;11.88;;;8.82;;
27219;SDS011;45274;52.266;10.790;2023-11-21T08:55:10;12.25;;;8.02;;
27219;SDS011;45274;52.266;10.790;2023-11-21T08:57:37;8.90;;;6.57;;
27219;SDS011;45274;52.266;10.790;2023-11-21T09:00:04;8.43;;;6.28;;
27219;SDS011;45274;52.266;10.790;2023-11-21T09:02:36;10.93;;;6.53;;
27219;SDS011;45274;52.266;10.790;2023-11-21T09:05:11;10.45;;;6.47;;
27219;SDS011;45274;52.266;10.790;2023-11-21T09:07:38;9.40;;;5.82;;
27219;SDS011;45274;52.266;10.790;2023-11-21T09:10:06;9.63;;;6.35;;
27219;SDS011;45274;52.266;10.790;2023-11-21T09:12:32;8.27;;;6.70;;
27219;SDS011;45274;52.266;10.790;2023-11-21T09:14:58;10.57;;;7.00;;
27219;SDS011;45274;52.266;10.790;2023-11-21T09:17:23;10.95;;;6.35;;
27219;SDS011;45274;52.266;10.790;2023-11-21T09:19:49;9.38;;;6.90;;
27219;SDS011;45274;52.266;10.790;2023-11-21T09:22:17;9.18;;;6.38;;
27219;SDS011;45274;52.266;10.790;2023-11-21T09:24:43;8.82;;;6.65;;
27219;SDS011;45274;52.266;10.790;2023-11-21T09:27:08;8.07;;;5.70;;
27219;SDS011;45274;52.266;10.790;2023-11-21T09:29:34;8.00;;;6.13;;
27219;SDS011;45274;52.266;10.790;2023-11-21T09:32:00;10.48;;;5.85;;
27219;SDS011;45274;52.266;10.790;2023-11-21T09:34:26;8.73;;;6.38;;
27219;SDS011;45274;52.266;10.790;2023-11-21T09:36:52;9.82;;;5.90;;
27219;SDS011;45274;52.266;10.790;2023-11-21T09:39:18;8.10;;;5.55;;
27219;SDS011;45274;52.266;10.790;2023-11-21T09:41:44;8.00;;;6.15;;
27219;SDS011;45274;52.266;10.790;2023-11-21T09:44:14;8.75;;;6.22;;
27219;SDS011;45274;52.266;10.790;2023-11-21T09:46:43;8.70;;;5.57;;
27219;SDS011;45274;52.266;10.790;2023-11-21T09:49:13;12.05;;;6.35;;
27219;SDS011;45274;52.266;10.790;2023-11-21T09:51:42;9.80;;;5.60;;
27219;SDS011;45274;52.266;10.790;2023-11-21T09:54:08;7.95;;;5.95;;
27219;SDS011;45274;52.266;10.790;2023-11-21T09:56:37;8.77;;;5.75;;
27219;SDS011;45274;52.266;10.790;2023-11-21T09:59:03;9.07;;;6.22;;
27219;SDS011;45274;52.266;10.790;2023-11-21T10:01:32;9.90;;;6.53;;
27219;SDS011;45274;52.266;10.790;2023-11-21T10:04:00;8.15;;;6.25;;
27219;SDS011;45274;52.266;10.790;2023-11-21T10:06:26;11.48;;;5.97;;
27219;SDS011;45274;52.266;10.790;2023-11-21T10:08:52;9.27;;;6.32;;
27219;SDS011;45274;52.266;10.790;2023-11-21T10:11:21;9.30;;;6.47;;
27219;SDS011;45274;52.266;10.790;2023-11-21T10:13:50;8.00;;;6.40;;
27219;SDS011;45274;52.266;10.790;2023-11-21T10:16:19;7.63;;;5.78;;
27219;SDS011;45274;52.266;10.790;2023-11-21T10:18:46;11.00;;;6.43;;
27219;SDS011;45274;52.266;10.790;2023-11-21T10:21:17;7.80;;;6.00;;
27219;SDS011;45274;52.266;10.790;2023-11-21T10:23:43;10.40;;;7.05;;
27219;SDS011;45274;52.266;10.790;2023-11-21T10:26:09;8.45;;;6.13;;
27219;SDS011;45274;52.266;10.790;2023-11-21T10:28:41;7.30;;;5.20;;
27219;SDS011;45274;52.266;10.790;2023-11-21T10:31:32;8.32;;;6.05;;
27219;SDS011;45274;52.266;10.790;2023-11-21T10:34:14;9.82;;;6.90;;
27219;SDS011;45274;52.266;10.790;2023-11-21T10:36:40;8.63;;;6.28;;
27219;SDS011;45274;52.266;10.790;2023-11-21T10:39:06;11.45;;;6.95;;
27219;SDS011;45274;52.266;10.790;2023-11-21T10:41:31;8.77;;;6.88;;
27219;SDS011;45274;52.266;10.790;2023-11-21T10:43:57;10.45;;;6.88;;
27219;SDS011;45274;52.266;10.790;2023-11-21T10:46:22;10.38;;;6.70;;
27219;SDS011;45274;52.266;10.790;2023-11-21T10:48:52;9.68;;;7.03;;
27219;SDS011;45274;52.266;10.790;2023-11-21T10:51:20;10.10;;;6.82;;
27219;SDS011;45274;52.266;10.790;2023-11-21T10:53:46;11.60;;;6.78;;
27219;SDS011;45274;52.266;10.790;2023-11-21T10:56:12;10.07;;;6.50;;
27219;SDS011;45274;52.266;10.790;2023-11-21T10:58:45;10.57;;;6.45;;
27219;SDS011;45274;52.266;10.790;2023-11-21T11:01:11;10.38;;;6.68;;
27219;SDS011;45274;52.266;10.790;2023-11-21T11:03:37;10.80;;;6.32;;
27219;SDS011;45274;52.266;10.790;2023-11-21T11:06:06;19.70;;;8.02;;
27219;SDS011;45274;52.266;10.790;2023-11-21T11:08:36;11.90;;;6.63;;
27219;SDS011;45274;52.266;10.790;2023-11-21T11:11:03;10.15;;;6.28;;
27219;SDS011;45274;52.266;10.790;2023-11-21T11:13:31;8.32;;;5.75;;
27219;SDS011;45274;52.266;10.790;2023-11-21T11:15:58;7.85;;;5.70;;
27219;SDS011;45274;52.266;10.790;2023-11-21T11:18:26;9.30;;;6.35;;
27219;SDS011;45274;52.266;10.790;2023-11-21T11:20:56;7.28;;;5.68;;
27219;SDS011;45274;52.266;10.790;2023-11-21T11:29:42;10.68;;;6.60;;
27219;SDS011;45274;52.266;10.790;2023-11-21T11:34:54;8.80;;;6.18;;
27219;SDS011;45274;52.266;10.790;2023-11-21T11:37:47;9.48;;;5.75;;
27219;SDS011;45274;52.266;10.790;2023-11-21T11:40:13;7.70;;;5.65;;
27219;SDS011;45274;52.266;10.790;2023-11-21T11:42:38;7.55;;;5.45;;
27219;SDS011;45274;52.266;10.790;2023-11-21T11:45:22;7.03;;;5.00;;
27219;SDS011;45274;52.266;10.790;2023-11-21T11:47:47;8.02;;;4.70;;
27219;SDS011;45274;52.266;10.790;2023-11-21T11:50:13;6.95;;;5.35;;
27219;SDS011;45274;52.266;10.790;2023-11-21T11:52:51;6.88;;;5.38;;
27219;SDS011;45274;52.266;10.790;2023-11-21T11:55:23;8.50;;;5.53;;
27219;SDS011;45274;52.266;10.790;2023-11-21T11:57:51;6.75;;;5.28;;
27219;SDS011;45274;52.266;10.790;2023-11-21T12:02:51;6.25;;;4.57;;
27219;SDS011;45274;52.266;10.790;2023-11-21T12:05:25;6.75;;;4.85;;
27219;SDS011;45274;52.266;10.790;2023-11-21T12:07:54;6.88;;;5.05;;
27219;SDS011;45274;52.266;10.790;2023-11-21T12:10:23;5.50;;;4.50;;
27219;SDS011;45274;52.266;10.790;2023-11-21T12:12:51;7.53;;;4.75;;
27219;SDS011;45274;52.266;10.790;2023-11-21T12:15:18;6.40;;;4.43;;
27219;SDS011;45274;52.266;10.790;2023-11-21T12:17:44;7.38;;;4.47;;
27219;SDS011;45274;52.266;10.790;2023-11-21T12:20:13;11.65;;;4.55;;
27219;SDS011;45274;52.266;10.790;2023-11-21T12:23:01;5.50;;;3.88;;
27219;SDS011;45274;52.266;10.790;2023-11-21T12:25:29;5.60;;;4.00;;
27219;SDS011;45274;52.266;10.790;2023-11-21T12:27:57;7.68;;;3.78;;
27219;SDS011;45274;52.266;10.790;2023-11-21T12:30:25;4.80;;;3.72;;
27219;SDS011;45274;52.266;10.790;2023-11-21T12:32:55;6.97;;;3.28;;
27219;SDS011;45274;52.266;10.790;2023-11-21T12:35:24;4.53;;;3.30;;
27219;SDS011;45274;52.266;10.790;2023-11-21T12:37:52;4.00;;;3.40;;
27219;SDS011;45274;52.266;10.790;2023-11-21T12:40:19;4.22;;;3.22;;
27219;SDS011;45274;52.266;10.790;2023-11-21T12:42:45;7.50;;;3.40;;
27219;SDS011;45274;52.266;10.790;2023-11-21T12:47:42;4.95;;;2.70;;
27219;SDS011;45274;52.266;10.790;2023-11-21T12:50:09;4.25;;;2.80;;
27219;SDS011;45274;52.266;10.790;2023-11-21T12:52:44;4.65;;;2.80;;
27219;SDS011;45274;52.266;10.790;2023-11-21T12:57:43;2.50;;;2.30;;
27219;SDS011;45274;52.266;10.790;2023-11-21T13:00:10;6.32;;;2.55;;
27219;SDS011;45274;52.266;10.790;2023-11-21T13:02:42;4.13;;;2.55;;
27219;SDS011;45274;52.266;10.790;2023-11-21T13:05:08;5.28;;;2.72;;
27219;SDS011;45274;52.266;10.790;2023-11-21T13:07:43;3.85;;;2.55;;
27219;SDS011;45274;52.266;10.790;2023-11-21T13:10:13;2.70;;;2.30;;
27219;SDS011;45274;52.266;10.790;2023-11-21T13:12:45;5.60;;;2.50;;
27219;SDS011;45274;52.266;10.790;2023-11-21T13:15:14;3.20;;;2.40;;
27219;SDS011;45274;52.266;10.790;2023-11-21T13:17:43;5.70;;;3.15;;
27219;SDS011;45274;52.266;10.790;2023-11-21T13:20:10;3.55;;;2.42;;
27219;SDS011;45274;52.266;10.790;2023-11-21T13:23:07;7.03;;;3.10;;
27219;SDS011;45274;52.266;10.790;2023-11-21T13:25:32;6.43;;;3.38;;
27219;SDS011;45274;52.266;10.790;2023-11-21T13:27:58;8.65;;;2.85;;
27219;SDS011;45274;52.266;10.790;2023-11-21T13:30:24;3.70;;;2.85;;
27219;SDS011;45274;52.266;10.790;2023-11-21T13:32:59;3.72;;;2.90;;
27219;SDS011;45274;52.266;10.790;2023-11-21T13:35:30;5.65;;;3.15;;
27219;SDS011;45274;52.266;10.790;2023-11-21T13:38:04;5.18;;;2.92;;
27219;SDS011;45274;52.266;10.790;2023-11-21T13:40:31;3.55;;;2.95;;
27219;SDS011;45274;52.266;10.790;2023-11-21T13:42:59;4.88;;;2.90;;
27219;SDS011;45274;52.266;10.790;2023-11-21T13:45:29;5.13;;;2.80;;
27219;SDS011;45274;52.266;10.790;2023-11-21T13:47:55;4.57;;;3.10;;
27219;SDS011;45274;52.266;10.790;2023-11-21T13:50:24;4.40;;;2.55;;
27219;SDS011;45274;52.266;10.790;2023-11-21T13:52:58;4.38;;;2.72;;
27219;SDS011;45274;52.266;10.790;2023-11-21T13:55:28;3.60;;;2.60;;
27219;SDS011;45274;52.266;10.790;2023-11-21T13:57:53;4.22;;;2.83;;
27219;SDS011;45274;52.266;10.790;2023-11-21T14:00:19;4.38;;;3.03;;
27219;SDS011;45274;52.266;10.790;2023-11-21T14:03:04;4.93;;;3.28;;
27219;SDS011;45274;52.266;10.790;2023-11-21T14:05:35;7.80;;;2.83;;
27219;SDS011;45274;52.266;10.790;2023-11-21T14:08:01;4.63;;;2.80;;
27219;SDS011;45274;52.266;10.790;2023-11-21T14:10:30;5.28;;;2.83;;
27219;SDS011;45274;52.266;10.790;2023-11-21T14:13:09;6.10;;;2.83;;
27219;SDS011;45274;52.266;10.790;2023-11-21T14:15:38;3.92;;;2.67;;
27219;SDS011;45274;52.266;10.790;2023-11-21T14:18:08;4.28;;;2.78;;
27219;SDS011;45274;52.266;10.790;2023-11-21T14:20:38;6.60;;;3.00;;
27219;SDS011;45274;52.266;10.790;2023-11-21T14:23:05;5.03;;;2.70;;
27219;SDS011;45274;52.266;10.790;2023-11-21T14:25:32;4.93;;;2.90;;
27219;SDS011;45274;52.266;10.790;2023-11-21T14:27:58;4.25;;;2.60;;
27219;SDS011;45274;52.266;10.790;2023-11-21T14:30:24;3.70;;;2.78;;
27219;SDS011;45274;52.266;10.790;2023-11-21T14:32:50;4.72;;;2.85;;
27219;SDS011;45274;52.266;10.790;2023-11-21T14:35:16;4.88;;;3.10;;
27219;SDS011;45274;52.266;10.790;2023-11-21T14:37:44;4.20;;;3.00;;
27219;SDS011;45274;52.266;10.790;2023-11-21T14:40:09;5.22;;;2.90;;
27219;SDS011;45274;52.266;10.790;2023-11-21T14:42:36;3.25;;;2.80;;
27219;SDS011;45274;52.266;10.790;2023-11-21T14:45:04;4.20;;;2.92;;